Time;durP1;ratioP1;P1;durP2;ratioP2;P2;SDS_P1;SDS_P2;PMS_P1;PMS_P2;Temp;Humidity;BMP_temperature;BMP_pressure;BME280_temperature;BME280_humidity;BME280_pressure;Samples;Min_cycle;Max_cycle;Signal;HPM_P1;HPM_P2
2022/11/05 00:10:24;;;;;;;3.25;2.17;;;;;;;20.43;47.50;101393.44;5094022;28;20039;-64
2022/11/05 00:18:23;;;;;;;3.90;2.30;;;;;;;20.40;47.29;101391.91;5084179;28;20039;-64
2022/11/05 00:20:49;;;;;;;2.85;2.20;;;;;;;20.45;47.19;101394.09;5068284;28;20709;-64
2022/11/05 00:26:02;;;;;;;4.05;2.55;;;;;;;20.39;47.59;101402.66;5085544;28;20027;-64
2022/11/05 00:28:29;;;;;;;3.75;2.20;;;;;;;20.29;47.69;101402.03;5083105;28;20028;-64
2022/11/05 00:31:00;;;;;;;3.40;2.13;;;;;;;20.35;47.64;101398.72;5090831;28;20035;-64
2022/11/05 00:33:25;;;;;;;3.75;2.50;;;;;;;20.41;47.37;101401.53;5085617;28;20051;-64
2022/11/05 00:35:51;;;;;;;3.65;2.38;;;;;;;20.29;47.59;101405.53;5084797;28;20036;-64
2022/11/05 00:38:16;;;;;;;5.53;2.25;;;;;;;20.30;47.75;101407.16;5084315;28;20050;-64
2022/11/05 00:40:43;;;;;;;3.17;1.90;;;;;;;20.39;47.48;101400.84;5093431;28;20071;-64
2022/11/05 00:45:53;;;;;;;2.88;2.20;;;;;;;20.30;47.46;101416.94;5084084;28;20096;-64
2022/11/05 00:51:03;;;;;;;4.20;2.42;;;;;;;20.29;47.75;101423.19;5090876;28;20130;-64
2022/11/05 00:53:28;;;;;;;2.95;2.03;;;;;;;20.33;47.55;101416.59;5091532;28;20147;-64
2022/11/05 00:55:54;;;;;;;4.70;2.25;;;;;;;20.41;47.35;101417.41;5085223;28;20113;-64
2022/11/05 00:58:21;;;;;;;3.50;2.10;;;;;;;20.39;47.47;101419.38;5082768;28;21608;-64
2022/11/05 01:00:52;;;;;;;3.63;2.22;;;;;;;20.33;47.48;101411.28;5084864;28;21910;-64
2022/11/05 01:03:20;;;;;;;3.30;2.10;;;;;;;20.31;47.58;101424.69;5084831;28;21978;-64
2022/11/05 01:05:48;;;;;;;3.78;2.50;;;;;;;20.39;47.44;101416.72;5086107;28;20047;-64
2022/11/05 01:08:16;;;;;;;3.60;2.40;;;;;;;20.35;47.53;101417.25;5086660;28;20550;-64
2022/11/05 01:10:48;;;;;;;2.92;1.80;;;;;;;20.29;47.64;101412.59;5088226;28;20047;-64
2022/11/05 01:13:17;;;;;;;3.60;2.08;;;;;;;20.31;47.65;101411.47;5082579;28;20043;-64
2022/11/05 01:15:43;;;;;;;4.30;2.10;;;;;;;20.33;47.63;101413.94;5085821;28;20032;-64
2022/11/05 01:18:09;;;;;;;2.17;1.83;;;;;;;20.45;47.17;101415.25;5084257;28;20529;-64
2022/11/05 01:20:35;;;;;;;3.17;1.98;;;;;;;20.28;47.71;101414.41;5085269;28;20043;-64
2022/11/05 01:23:00;;;;;;;3.40;2.08;;;;;;;20.31;47.64;101419.41;5083700;28;20050;-64
2022/11/05 01:25:26;;;;;;;4.22;2.10;;;;;;;20.20;47.82;101423.22;5086466;28;20047;-64
2022/11/05 01:27:52;;;;;;;2.63;1.83;;;;;;;20.34;47.36;101418.22;5087087;28;20471;-64
2022/11/05 01:30:17;;;;;;;4.15;1.92;;;;;;;20.33;47.46;101427.16;5081302;28;20072;-64
2022/11/05 01:32:43;;;;;;;4.07;2.35;;;;;;;20.24;47.74;101428.97;5081905;28;20031;-64
2022/11/05 01:35:12;;;;;;;2.40;1.88;;;;;;;20.31;47.41;101427.34;5085933;28;20039;-64
2022/11/05 01:37:38;;;;;;;2.75;2.38;;;;;;;20.35;47.48;101428.66;5085081;28;20217;-64
2022/11/05 01:40:05;;;;;;;3.35;1.80;;;;;;;20.22;47.68;101434.44;5091669;28;20050;-64
2022/11/05 01:42:31;;;;;;;3.45;2.10;;;;;;;20.27;47.37;101423.34;5084237;28;20435;-64
2022/11/05 01:44:59;;;;;;;3.38;2.00;;;;;;;20.34;47.41;101421.69;5088030;28;20044;-64
2022/11/05 01:47:33;;;;;;;3.53;2.03;;;;;;;20.33;47.55;101424.53;5084322;28;20628;-64
2022/11/05 01:50:04;;;;;;;2.25;1.75;;;;;;;20.29;47.50;101424.03;5088134;28;20038;-64
2022/11/05 01:52:32;;;;;;;2.60;1.88;;;;;;;20.40;47.31;101425.47;5089596;28;20044;-64
2022/11/05 01:54:58;;;;;;;2.53;1.70;;;;;;;20.35;47.54;101433.94;5096328;28;20522;-64
2022/11/05 01:57:25;;;;;;;2.47;1.75;;;;;;;20.29;47.56;101439.06;5094121;28;20036;-64
2022/11/05 01:59:55;;;;;;;3.38;1.85;;;;;;;20.42;47.25;101429.63;5092355;28;20082;-64
2022/11/05 02:02:23;;;;;;;2.13;1.60;;;;;;;20.34;47.27;101424.34;5096728;28;20080;-64
2022/11/05 02:04:57;;;;;;;4.20;1.80;;;;;;;20.33;47.50;101429.81;5090257;28;20051;-64
2022/11/05 02:07:25;;;;;;;2.85;1.67;;;;;;;20.37;47.45;101431.13;5084414;28;20662;-64
2022/11/05 02:10:00;;;;;;;2.72;1.85;;;;;;;20.29;47.75;101423.19;5087173;28;20035;-64
2022/11/05 02:12:27;;;;;;;3.33;1.90;;;;;;;20.20;47.66;101427.66;5095767;27;20566;-64
2022/11/05 02:14:54;;;;;;;3.42;1.80;;;;;;;20.31;47.39;101421.22;5093171;28;20038;-64
2022/11/05 02:17:22;;;;;;;3.58;1.83;;;;;;;20.31;47.42;101422.03;5086710;28;20048;-64
2022/11/05 02:19:59;;;;;;;3.88;1.80;;;;;;;20.33;47.37;101422.69;5085132;28;20051;-64
2022/11/05 02:22:53;;;;;;;3.45;2.20;;;;;;;20.33;47.48;101425.34;5092533;28;20058;-64
2022/11/05 02:25:57;;;;;;;2.40;1.80;;;;;;;20.29;47.36;101428.47;5085077;28;20039;-64
2022/11/05 02:28:59;;;;;;;4.25;2.08;;;;;;;20.24;47.53;101434.28;5045609;28;20084;-64
2022/11/05 02:31:46;;;;;;;3.05;1.60;;;;;;;20.31;47.39;101432.63;5042734;28;20060;-64
2022/11/05 02:34:26;;;;;;;2.38;1.63;;;;;;;20.27;47.46;101441.03;5077455;28;20058;-64
2022/11/05 02:37:08;;;;;;;;;;;;;;;20.30;47.31;101440.72;5084124;28;20497;-64
2022/11/05 02:39:48;;;;;;;2.78;2.08;;;;;;;20.27;47.49;101438.41;5095118;28;19962;-64
2022/11/05 02:42:35;;;;;;;1.88;1.77;;;;;;;20.31;47.46;101437.91;5088574;28;20047;-64
2022/11/05 02:45:16;;;;;;;3.35;2.08;;;;;;;20.22;47.64;101437.09;5092502;28;20039;-64
2022/11/05 02:47:50;;;;;;;3.25;1.70;;;;;;;20.32;47.33;101434.28;5086744;28;20742;-64
2022/11/05 02:50:30;;;;;;;3.80;1.83;;;;;;;20.23;47.58;101433.44;5087651;28;20075;-64
2022/11/05 02:53:27;;;;;;;2.65;1.65;;;;;;;20.23;47.70;101435.25;5089617;28;20726;-64
2022/11/05 02:56:00;;;;;;;2.85;1.70;;;;;;;20.32;47.40;101430.81;5084953;28;21929;-64
2022/11/05 02:58:29;;;;;;;2.65;1.92;;;;;;;20.21;47.75;101432.78;5083866;28;20579;-64
2022/11/05 03:00:59;;;;;;;2.60;1.55;;;;;;;20.27;47.56;101433.94;5088095;28;20035;-64
2022/11/05 03:03:36;;;;;;;3.30;1.48;;;;;;;20.30;47.21;101428.34;5084546;28;20040;-64
2022/11/05 03:06:10;;;;;;;2.03;1.60;;;;;;;20.19;47.58;101426.84;5091530;28;20612;-64
2022/11/05 03:09:01;;;;;;;4.10;1.77;;;;;;;20.26;47.46;101426.16;5087509;28;20131;-64
2022/11/05 03:11:34;;;;;;;3.20;2.00;;;;;;;20.31;47.29;101429.16;5089011;28;20062;-64
2022/11/05 03:14:02;;;;;;;3.03;1.60;;;;;;;20.24;47.40;101418.41;5091903;28;20057;-64
2022/11/05 03:16:39;;;;;;;3.78;1.63;;;;;;;20.20;47.50;101415.28;5085837;28;20397;-64
2022/11/05 03:19:33;;;;;;;2.50;1.50;;;;;;;20.26;47.37;101419.06;5091139;28;20446;-64
2022/11/05 03:22:12;;;;;;;3.05;1.58;;;;;;;20.23;47.47;101419.41;5088430;28;20100;-64
2022/11/05 03:24:45;;;;;;;2.80;2.13;;;;;;;20.18;47.59;101421.72;5089178;28;20435;-64
2022/11/05 03:27:25;;;;;;;3.13;1.38;;;;;;;20.31;47.25;101416.75;5089150;28;20050;-64
2022/11/05 03:29:58;;;;;;;3.22;1.60;;;;;;;20.33;47.11;101406.84;5093024;28;20042;-64
2022/11/05 03:32:26;;;;;;;1.63;1.42;;;;;;;20.27;47.37;101410.13;5089916;28;20752;-64
2022/11/05 03:34:59;;;;;;;1.33;1.23;;;;;;;20.23;47.43;101424.69;5064052;28;20103;-64
2022/11/05 03:37:28;;;;;;;1.88;1.30;;;;;;;20.20;47.67;101419.75;5083161;28;20042;-64
2022/11/05 03:39:58;;;;;;;2.05;1.48;;;;;;;20.16;47.59;101427.19;5083608;28;20048;-64
2022/11/05 03:42:28;;;;;;;4.25;1.88;;;;;;;20.11;47.64;101428.69;5078875;28;20046;-64
2022/11/05 03:44:57;;;;;;;1.77;1.50;;;;;;;20.16;47.67;101426.38;5089930;28;20119;-64
2022/11/05 03:47:28;;;;;;;1.70;1.40;;;;;;;20.20;47.52;101427.66;5065263;28;20632;-64
2022/11/05 03:50:19;;;;;;;1.70;1.42;;;;;;;20.22;47.37;101420.38;5073347;28;20039;-64
2022/11/05 03:52:57;;;;;;;1.92;1.40;;;;;;;20.25;47.34;101429.81;5089308;28;20089;-64
2022/11/05 03:55:31;;;;;;;1.67;1.58;;;;;;;20.21;47.36;101435.44;5080767;28;20032;-64
2022/11/05 03:57:58;;;;;;;2.45;1.85;;;;;;;20.18;47.45;101430.50;5084603;28;21088;-64
2022/11/05 04:00:23;;;;;;;1.63;1.42;;;;;;;20.16;47.59;101429.84;5074391;28;20475;-64
2022/11/05 04:02:49;;;;;;;1.60;1.35;;;;;;;20.16;47.64;101431.66;5084501;28;20536;-64
2022/11/05 04:05:15;;;;;;;3.72;1.40;;;;;;;20.20;47.46;101443.53;5091409;28;20047;-64
2022/11/05 04:13:23;;;;;;;1.85;1.27;;;;;;;20.22;47.19;101439.72;5085814;28;20134;-64
2022/11/05 04:18:33;;;;;;;1.35;1.25;;;;;;;20.16;47.45;101456.28;5090460;28;20151;-64
2022/11/05 04:26:26;;;;;;;2.20;1.55;;;;;;;20.10;47.63;101450.81;5089069;28;20036;-64
2022/11/05 04:31:37;;;;;;;1.80;1.45;;;;;;;20.18;47.46;101449.00;5090096;28;20059;-64
2022/11/05 04:34:03;;;;;;;1.67;1.38;;;;;;;20.12;47.47;101441.75;5084688;28;20063;-63
2022/11/05 04:36:28;;;;;;;1.48;1.23;;;;;;;20.14;47.51;101442.41;5090471;28;20389;-63
2022/11/05 04:38:54;;;;;;;2.22;1.45;;;;;;;20.16;47.45;101439.59;5092577;28;20096;-63
2022/11/05 04:41:19;;;;;;;2.38;1.50;;;;;;;20.17;47.30;101446.53;5087612;28;20040;-63
2022/11/05 04:43:45;;;;;;;2.72;1.48;;;;;;;20.15;47.38;101448.50;5090343;28;20517;-63
2022/11/05 04:46:11;;;;;;;1.73;1.20;;;;;;;20.27;47.24;101448.97;5089878;28;20059;-63
2022/11/05 04:48:36;;;;;;;1.23;1.13;;;;;;;20.16;47.34;101445.69;5089433;28;20050;-63
2022/11/05 04:51:03;;;;;;;2.90;1.58;;;;;;;20.15;47.37;101444.06;5090135;27;20484;-63
2022/11/05 04:53:28;;;;;;;2.40;1.30;;;;;;;20.13;47.46;101450.50;5088123;28;20031;-63
2022/11/05 04:55:54;;;;;;;1.95;1.50;;;;;;;20.11;47.56;101455.13;5089208;28;20136;-63
2022/11/05 04:58:20;;;;;;;1.42;1.33;;;;;;;20.07;47.67;101448.50;5085818;28;20398;-63
2022/11/05 05:00:48;;;;;;;2.33;1.45;;;;;;;20.12;47.47;101459.44;5088583;28;20086;-62
2022/11/05 05:03:13;;;;;;;1.60;1.40;;;;;;;20.12;47.40;101465.53;5087434;28;20020;-62
2022/11/05 05:05:39;;;;;;;1.98;1.45;;;;;;;20.06;47.52;101463.53;5086564;28;20087;-63
2022/11/05 05:08:05;;;;;;;1.77;1.45;;;;;;;20.10;47.49;101459.56;5088506;28;20106;-63
2022/11/05 05:10:31;;;;;;;1.42;1.13;;;;;;;20.03;47.77;101468.34;5086387;28;20034;-63
2022/11/05 05:12:57;;;;;;;1.35;1.17;;;;;;;20.16;47.39;101466.84;5088112;28;20028;-63
2022/11/05 05:15:23;;;;;;;1.83;1.30;;;;;;;20.05;47.55;101463.72;5089510;28;20801;-63
2022/11/05 05:17:51;;;;;;;1.30;1.15;;;;;;;20.01;47.73;101465.03;5084488;28;20126;-63
2022/11/05 05:23:03;;;;;;;2.63;1.42;;;;;;;20.11;47.43;101468.34;5086155;28;20486;-63
2022/11/05 05:25:29;;;;;;;3.30;1.80;;;;;;;20.08;47.54;101463.38;5087782;28;20485;-63
2022/11/05 05:27:58;;;;;;;1.88;1.25;;;;;;;20.10;47.41;101469.31;5087397;28;20046;-63
2022/11/05 05:30:24;;;;;;;1.50;1.10;;;;;;;20.13;47.32;101472.47;5083733;28;20028;-63
2022/11/05 05:32:50;;;;;;;1.83;1.23;;;;;;;20.13;47.35;101469.00;5082590;28;20564;-63
2022/11/05 05:35:16;;;;;;;3.22;1.23;;;;;;;20.06;47.50;101475.94;5085520;28;20028;-63
2022/11/05 05:37:42;;;;;;;2.72;1.30;;;;;;;20.07;47.53;101473.13;5083345;28;20421;-63
2022/11/05 05:40:08;;;;;;;1.55;1.30;;;;;;;20.08;47.46;101476.59;5089299;28;20040;-63
2022/11/05 05:42:34;;;;;;;1.65;1.30;;;;;;;20.00;47.65;101476.59;5090070;28;20619;-63
2022/11/05 05:44:59;;;;;;;1.98;1.60;;;;;;;20.11;47.27;101476.28;5084368;28;20074;-63
2022/11/05 05:47:25;;;;;;;3.35;1.67;;;;;;;20.09;47.42;101478.25;5086338;28;20035;-63
2022/11/05 05:49:50;;;;;;;1.55;1.15;;;;;;;20.04;47.40;101478.75;5084572;28;20035;-63
2022/11/05 05:52:16;;;;;;;2.13;1.20;;;;;;;20.01;47.80;101483.53;5091176;28;20048;-63
2022/11/05 05:54:41;;;;;;;1.77;1.20;;;;;;;19.97;47.67;101480.41;5088070;28;20024;-63
2022/11/05 05:57:07;;;;;;;1.77;1.17;;;;;;;20.00;47.57;101476.59;5085546;28;20593;-63
2022/11/05 05:59:32;;;;;;;2.47;1.38;;;;;;;20.10;47.36;101478.06;5093023;28;20036;-63
2022/11/05 06:01:59;;;;;;;1.25;1.02;;;;;;;20.04;47.46;101477.91;5083231;28;20032;-63
2022/11/05 06:04:25;;;;;;;2.03;1.45;;;;;;;20.04;47.46;101488.50;5082984;28;20035;-63
2022/11/05 06:06:50;;;;;;;1.40;1.30;;;;;;;20.07;47.40;101485.50;5086332;28;20040;-63
2022/11/05 06:09:16;;;;;;;2.05;1.13;;;;;;;20.04;47.49;101480.56;5086893;28;20044;-63
2022/11/05 06:11:41;;;;;;;2.08;1.38;;;;;;;20.07;47.25;101483.69;5085372;28;20043;-63
2022/11/05 06:14:11;;;;;;;1.92;1.25;;;;;;;20.08;47.34;101485.34;5089236;28;20490;-63
2022/11/05 06:16:37;;;;;;;1.83;1.60;;;;;;;20.09;47.29;101489.63;5086913;28;20540;-63
2022/11/05 06:19:04;;;;;;;2.22;1.30;;;;;;;20.08;47.27;101493.28;5089383;28;20054;-63
2022/11/05 06:21:30;;;;;;;2.67;1.63;;;;;;;20.05;47.37;101484.84;5081887;28;20405;-63
2022/11/05 06:23:55;;;;;;;1.98;1.30;;;;;;;20.07;47.42;101480.22;5089373;28;20039;-63
2022/11/05 06:26:21;;;;;;;2.15;1.25;;;;;;;20.02;47.44;101490.47;5087788;28;20073;-63
2022/11/05 06:28:46;;;;;;;1.70;1.60;;;;;;;20.01;47.34;101491.47;5087014;28;20040;-63
2022/11/05 06:31:13;;;;;;;1.33;1.20;;;;;;;20.00;47.56;101492.47;5093677;28;20043;-63
2022/11/05 06:33:39;;;;;;;2.83;1.83;;;;;;;20.03;47.42;101492.97;5087764;28;20645;-63
2022/11/05 06:36:06;;;;;;;2.67;1.40;;;;;;;19.93;47.59;101487.03;5087789;28;20034;-63
2022/11/05 06:38:34;;;;;;;1.40;1.30;;;;;;;20.01;47.50;101491.47;5092448;28;20032;-63
2022/11/05 06:41:01;;;;;;;1.48;1.30;;;;;;;19.99;47.57;101489.00;5093847;28;20031;-63
2022/11/05 06:43:27;;;;;;;2.47;1.45;;;;;;;19.90;47.63;101489.97;5089860;28;20036;-63
2022/11/05 06:45:56;;;;;;;1.88;1.38;;;;;;;19.98;47.47;101497.91;5092402;28;20095;-63
2022/11/05 06:48:24;;;;;;;2.45;1.55;;;;;;;19.95;47.53;101502.72;5088938;28;20569;-63
2022/11/05 06:50:49;;;;;;;2.25;1.45;;;;;;;19.93;47.51;101502.88;5091441;28;20047;-63
2022/11/05 06:53:15;;;;;;;2.10;1.52;;;;;;;19.91;47.64;101502.19;5084592;28;20056;-63
2022/11/05 06:55:40;;;;;;;2.88;1.45;;;;;;;19.98;47.42;101508.50;5093515;28;20020;-63
2022/11/05 06:58:06;;;;;;;1.33;1.23;;;;;;;19.99;47.43;101512.78;5087006;28;20092;-63
2022/11/05 07:00:31;;;;;;;1.77;1.33;;;;;;;19.90;47.75;101511.94;5093116;28;20040;-63
2022/11/05 07:03:08;;;;;;;1.88;1.52;;;;;;;19.97;47.49;101514.78;5092898;28;20039;-63
2022/11/05 07:05:46;;;;;;;2.10;1.42;;;;;;;19.88;47.64;101527.13;5089524;28;20089;-63
2022/11/05 07:08:12;;;;;;;1.40;1.30;;;;;;;19.95;47.49;101518.56;5092495;28;20715;-63
2022/11/05 07:10:38;;;;;;;1.65;1.17;;;;;;;19.84;47.77;101517.06;5086974;28;20038;-63
2022/11/05 07:13:03;;;;;;;1.80;1.52;;;;;;;19.86;47.67;101515.06;5089630;28;20036;-63
2022/11/05 07:15:29;;;;;;;1.55;1.27;;;;;;;19.88;47.44;101511.28;5092368;28;20036;-63
2022/11/05 07:17:57;;;;;;;2.75;1.52;;;;;;;19.97;47.40;101514.78;5088598;28;20044;-63
2022/11/05 07:20:23;;;;;;;1.58;1.17;;;;;;;20.00;47.25;101511.78;5088255;28;20036;-63
2022/11/05 07:22:48;;;;;;;3.38;1.52;;;;;;;19.94;47.52;101516.91;5086160;28;20063;-63
2022/11/05 07:25:14;;;;;;;1.90;1.27;;;;;;;19.85;47.58;101511.59;5090145;28;20051;-63
2022/11/05 07:27:39;;;;;;;2.05;1.38;;;;;;;19.95;47.39;101518.56;5093476;28;20040;-63
2022/11/05 07:30:09;;;;;;;1.65;1.40;;;;;;;19.97;47.35;101519.22;5083264;28;20119;-62
2022/11/05 07:32:41;;;;;;;1.77;1.48;;;;;;;19.94;47.41;101516.91;5090781;28;20040;-63
2022/11/05 07:35:08;;;;;;;2.10;1.75;;;;;;;20.00;47.28;101519.72;5093779;28;20059;-63
2022/11/05 07:37:44;;;;;;;2.03;1.45;;;;;;;19.94;47.45;101515.09;5090500;28;20330;-62
2022/11/05 07:40:11;;;;;;;1.42;1.05;;;;;;;19.99;47.31;101520.72;5087182;28;21615;-63
2022/11/05 07:42:42;;;;;;;2.10;1.50;;;;;;;19.90;47.36;101524.31;5094212;28;20023;-63
2022/11/05 07:45:08;;;;;;;2.97;1.35;;;;;;;19.84;47.51;101523.16;5090553;28;20039;-63
2022/11/05 07:47:47;;;;;;;1.63;1.40;;;;;;;19.89;47.52;101525.31;5093808;28;21857;-63
2022/11/05 07:50:18;;;;;;;1.25;1.15;;;;;;;19.82;47.67;101525.16;5092757;28;20044;-63
2022/11/05 07:52:44;;;;;;;3.30;1.48;;;;;;;19.92;47.21;101528.47;5093112;28;20055;-63
2022/11/05 07:55:12;;;;;;;2.33;1.45;;;;;;;19.95;47.34;101529.97;5096749;28;20040;-63
2022/11/05 07:57:45;;;;;;;2.97;1.40;;;;;;;20.01;47.06;101529.31;5091279;28;20542;-63
2022/11/05 08:00:21;;;;;;;1.52;1.35;;;;;;;19.98;47.21;101534.09;5087487;28;20136;-63
2022/11/05 08:03:04;;;;;;;1.67;1.50;;;;;;;19.88;47.41;101535.06;5092150;28;20032;-62
2022/11/05 08:05:33;;;;;;;1.55;1.35;;;;;;;19.86;47.51;101534.41;5088355;28;20100;-63
2022/11/05 08:07:58;;;;;;;1.70;1.60;;;;;;;19.86;47.39;101525.66;5095047;28;20035;-63
2022/11/05 08:10:25;;;;;;;2.53;1.60;;;;;;;19.86;47.36;101534.41;5091722;27;20032;-63
2022/11/05 08:12:54;;;;;;;1.40;1.30;;;;;;;19.88;47.45;101543.00;5092434;28;20520;-63
2022/11/05 08:15:20;;;;;;;1.90;1.50;;;;;;;19.82;47.61;101532.25;5093340;28;20095;-62
2022/11/05 08:17:46;;;;;;;3.60;1.63;;;;;;;19.90;47.40;101542.81;5090395;28;20146;-62
2022/11/05 08:20:13;;;;;;;2.30;1.48;;;;;;;19.96;47.42;101542.19;5091705;28;20036;-62
2022/11/05 08:22:43;;;;;;;1.63;1.25;;;;;;;20.00;47.03;101550.63;5084478;28;20069;-63
2022/11/05 08:25:09;;;;;;;1.92;1.55;;;;;;;19.99;47.19;101546.31;5096409;28;20047;-62
2022/11/05 08:27:35;;;;;;;1.50;1.20;;;;;;;20.01;47.12;101545.16;5090274;28;20028;-62
2022/11/05 08:30:01;;;;;;;1.92;1.33;;;;;;;20.06;46.97;101542.03;5095262;28;20512;-62
2022/11/05 08:32:26;;;;;;;2.05;1.40;;;;;;;20.07;47.16;101552.44;5093139;28;20043;-63
2022/11/05 08:34:52;;;;;;;2.05;1.50;;;;;;;20.07;47.08;101552.44;5091526;28;20055;-63
2022/11/05 08:37:17;;;;;;;2.53;1.38;;;;;;;20.01;47.14;101547.81;5091388;28;20043;-63
2022/11/05 08:39:43;;;;;;;1.42;1.17;;;;;;;20.04;47.14;101546.66;5093945;28;20050;-63
2022/11/05 08:42:08;;;;;;;2.85;1.50;;;;;;;20.10;47.03;101549.47;5090321;28;20398;-63
2022/11/05 08:44:34;;;;;;;3.28;1.35;;;;;;;20.06;47.15;101547.31;5090375;28;20493;-63
2022/11/05 08:46:59;;;;;;;1.40;1.30;;;;;;;20.19;46.90;101547.66;5083627;28;20122;-62
2022/11/05 08:49:25;;;;;;;2.08;1.35;;;;;;;20.11;46.65;101551.16;5093136;28;20081;-63
2022/11/05 08:51:50;;;;;;;1.73;1.08;;;;;;;20.10;46.91;101548.63;5094162;28;20059;-63
2022/11/05 08:54:19;;;;;;;1.55;1.20;;;;;;;20.02;47.16;101552.09;5089688;28;20126;-62
2022/11/05 08:56:44;;;;;;;1.65;1.55;;;;;;;20.09;47.04;101545.16;5091172;28;20093;-63
2022/11/05 08:59:10;;;;;;;1.77;1.33;;;;;;;20.14;46.96;101552.63;5087875;28;20032;-64
2022/11/05 09:01:35;;;;;;;2.13;1.40;;;;;;;20.11;46.94;101545.84;5090260;28;20030;-64
2022/11/05 09:04:01;;;;;;;2.33;1.67;;;;;;;20.23;46.41;101544.53;5086635;28;20484;-63
2022/11/05 09:06:29;;;;;;;1.65;1.30;;;;;;;20.16;46.59;101554.13;5086543;28;20035;-63
2022/11/05 09:08:54;;;;;;;1.70;1.30;;;;;;;20.16;46.90;101550.66;5089688;28;20583;-64
2022/11/05 09:11:20;;;;;;;2.17;1.60;;;;;;;20.19;46.66;101547.66;5089450;28;20096;-63
2022/11/05 09:13:46;;;;;;;1.77;1.38;;;;;;;20.20;46.68;101552.78;5091945;28;20027;-63
2022/11/05 09:16:23;;;;;;;1.58;1.40;;;;;;;20.17;46.58;101542.53;5096035;28;20863;-63
2022/11/05 09:18:49;;;;;;;1.50;1.30;;;;;;;20.23;46.64;101549.81;5090359;28;20058;-64
2022/11/05 09:21:16;;;;;;;1.75;1.38;;;;;;;20.18;46.83;101557.41;5091721;28;20031;-63
2022/11/05 09:23:41;;;;;;;1.23;1.10;;;;;;;20.19;46.81;101548.50;5090495;28;20068;-63
2022/11/05 09:26:08;;;;;;;2.08;1.30;;;;;;;20.23;46.69;101554.28;5096258;28;20052;-63
2022/11/05 09:28:34;;;;;;;2.70;1.52;;;;;;;20.21;46.66;101546.50;5090252;28;20063;-63
2022/11/05 09:31:03;;;;;;;2.55;1.35;;;;;;;20.23;46.64;101551.63;5100038;28;20047;-63
2022/11/05 09:33:29;;;;;;;2.25;1.50;;;;;;;20.20;46.69;101550.13;5094868;28;20119;-63
2022/11/05 09:35:58;;;;;;;2.30;1.33;;;;;;;20.18;46.89;101544.19;5085571;28;20060;-63
2022/11/05 09:38:23;;;;;;;2.28;1.48;;;;;;;20.20;46.73;101551.97;5093631;28;20039;-63
2022/11/05 09:40:55;;;;;;;2.05;1.40;;;;;;;20.13;46.79;101551.81;5099650;28;20046;-63
2022/11/05 09:43:25;;;;;;;2.25;1.33;;;;;;;20.23;46.59;101544.53;5091604;28;20166;-63
2022/11/05 09:45:54;;;;;;;1.42;1.27;;;;;;;20.12;46.78;101542.22;5100305;28;20081;-63
2022/11/05 09:48:26;;;;;;;2.75;1.30;;;;;;;20.11;46.87;101553.78;5092375;28;20084;-63
2022/11/05 09:50:52;;;;;;;1.55;1.40;;;;;;;20.14;46.74;101555.28;5093921;28;20043;-63
2022/11/05 09:53:21;;;;;;;1.17;1.08;;;;;;;20.09;47.03;101557.56;5097019;28;20066;-63
2022/11/05 09:55:50;;;;;;;2.60;1.45;;;;;;;20.13;46.89;101557.09;5092631;28;20051;-63
2022/11/05 09:58:42;;;;;;;1.17;1.08;;;;;;;20.07;47.08;101556.91;5091704;28;20032;-63
2022/11/05 10:01:20;;;;;;;1.85;1.50;;;;;;;20.05;47.04;101556.25;5094760;28;20043;-63
2022/11/05 10:03:49;;;;;;;3.85;1.42;;;;;;;20.11;46.83;101559.06;5093427;28;20063;-63
2022/11/05 10:06:21;;;;;;;1.88;1.48;;;;;;;20.08;47.00;101561.19;5094149;28;20398;-63
2022/11/05 10:08:54;;;;;;;2.42;1.50;;;;;;;20.06;47.10;101571.09;5095688;28;20036;-63
2022/11/05 10:11:28;;;;;;;2.30;1.33;;;;;;;20.06;47.12;101573.75;5085167;28;20071;-63
2022/11/05 10:14:00;;;;;;;1.83;1.33;;;;;;;19.99;47.15;101570.94;5098807;28;20039;-63
2022/11/05 10:16:38;;;;;;;1.20;1.10;;;;;;;19.96;47.02;101557.22;5094209;28;20039;-63
2022/11/05 10:19:20;;;;;;;1.42;1.20;;;;;;;20.10;46.94;101578.53;5101698;28;20035;-63
2022/11/05 10:21:46;;;;;;;1.33;1.23;;;;;;;20.07;47.07;101575.41;5103520;28;20039;-63
2022/11/05 10:24:18;;;;;;;1.92;1.38;;;;;;;20.10;47.00;101575.91;5102134;28;20431;-63
2022/11/05 10:26:48;;;;;;;1.42;1.20;;;;;;;20.08;46.95;101572.59;5097465;28;20038;-63
2022/11/05 10:29:16;;;;;;;;;;;;;;;20.02;47.13;101567.97;5094414;28;20039;-63
2022/11/05 10:31:42;;;;;;;1.90;1.77;;;;;;;20.01;47.26;101578.72;5094149;28;19964;-63
2022/11/05 10:34:12;;;;;;;1.98;1.33;;;;;;;20.06;47.05;101579.03;5098598;28;20028;-63
2022/11/05 10:36:37;;;;;;;;;;;;;;;20.03;47.21;101580.19;5099295;28;20572;-63
2022/11/05 10:39:18;;;;;;;1.60;1.38;;;;;;;20.09;47.02;101578.72;5098292;28;19993;-63
2022/11/05 10:42:12;;;;;;;1.80;1.30;;;;;;;20.03;47.13;101576.72;5096376;28;20039;-63
2022/11/05 10:44:47;;;;;;;2.00;1.45;;;;;;;20.00;47.26;101579.72;5104188;28;20814;-63
2022/11/05 10:47:42;;;;;;;1.33;1.23;;;;;;;20.04;47.18;101578.38;5098793;28;20966;-63
2022/11/05 10:50:16;;;;;;;1.63;1.17;;;;;;;20.01;47.37;101573.44;5093033;28;20047;-63
2022/11/05 10:52:51;;;;;;;1.42;1.33;;;;;;;20.02;47.12;101575.06;5105035;28;20101;-63
2022/11/05 10:55:34;;;;;;;1.65;1.30;;;;;;;20.05;47.25;101572.09;5106239;28;20050;-63
2022/11/05 10:58:09;;;;;;;1.40;1.20;;;;;;;19.96;47.32;101573.09;5102048;28;20059;-63
2022/11/05 11:00:35;;;;;;;1.65;1.35;;;;;;;19.92;47.48;101570.75;5104046;28;20027;-63
2022/11/05 11:03:04;;;;;;;2.55;1.40;;;;;;;19.93;47.34;101566.31;5098833;28;20028;-63
2022/11/05 11:05:39;;;;;;;1.10;1.00;;;;;;;20.03;47.28;101569.63;5105381;28;20070;-64
2022/11/05 11:08:24;;;;;;;1.23;1.00;;;;;;;20.03;47.03;101571.44;5094139;28;20024;-63
2022/11/05 11:10:53;;;;;;;1.70;1.38;;;;;;;20.05;47.16;101567.66;5102704;28;20151;-63
2022/11/05 11:13:46;;;;;;;2.33;1.40;;;;;;;19.99;47.13;101573.59;5095271;28;20050;-63
2022/11/05 11:16:15;;;;;;;1.25;1.15;;;;;;;20.00;47.10;101575.25;5097937;28;20564;-63
2022/11/05 11:18:42;;;;;;;1.97;1.27;;;;;;;20.04;47.06;101573.09;5090477;28;20063;-63
2022/11/05 11:21:14;;;;;;;0.95;0.90;;;;;;;19.99;47.20;101576.22;5104105;28;20476;-63
2022/11/05 11:23:41;;;;;;;1.48;1.15;;;;;;;20.04;47.08;101576.56;5092878;28;20043;-63
2022/11/05 11:26:09;;;;;;;1.63;1.45;;;;;;;20.03;47.19;101576.72;5099455;28;20804;-63
2022/11/05 11:28:41;;;;;;;1.33;1.23;;;;;;;19.99;47.33;101570.94;5099879;28;20044;-63
2022/11/05 11:31:14;;;;;;;1.38;1.10;;;;;;;19.93;47.43;101574.25;5091369;28;20044;-63
2022/11/05 11:33:42;;;;;;;1.48;1.33;;;;;;;20.07;47.16;101578.88;5099487;28;20039;-63
2022/11/05 11:36:10;;;;;;;1.73;1.35;;;;;;;20.03;47.19;101579.38;5095831;28;20043;-63
2022/11/05 11:38:36;;;;;;;1.17;1.08;;;;;;;20.09;47.06;101576.06;5096020;28;20090;-63
2022/11/05 11:41:10;;;;;;;2.75;1.33;;;;;;;20.00;47.19;101577.06;5082478;28;20027;-63
2022/11/05 11:43:39;;;;;;;2.60;1.38;;;;;;;20.04;47.16;101573.91;5092389;28;20048;-63
2022/11/05 11:46:17;;;;;;;1.38;1.25;;;;;;;20.05;47.23;101580.03;5094572;28;20036;-63
2022/11/05 11:48:46;;;;;;;2.70;1.40;;;;;;;20.05;47.17;101580.88;5102586;28;20047;-63
2022/11/05 11:51:43;;;;;;;1.73;1.08;;;;;;;20.07;47.14;101575.41;5103132;28;20062;-63
2022/11/05 11:54:20;;;;;;;1.98;1.30;;;;;;;20.09;47.11;101578.72;5097585;28;20105;-63
2022/11/05 11:56:47;;;;;;;1.33;1.23;;;;;;;20.11;47.05;101582.88;5094827;28;20083;-63
2022/11/05 11:59:22;;;;;;;2.85;1.23;;;;;;;20.11;47.10;101571.47;5089891;28;20044;-63
2022/11/05 12:02:17;;;;;;;1.48;1.15;;;;;;;20.05;47.21;101574.75;5099284;28;20052;-63
2022/11/05 12:05:37;;;;;;;1.17;1.08;;;;;;;20.04;47.16;101575.75;5094477;28;20035;-63
2022/11/05 12:08:17;;;;;;;1.33;1.23;;;;;;;20.04;47.33;101573.09;5041748;28;20128;-63
2022/11/05 12:10:51;;;;;;;1.20;1.10;;;;;;;20.08;47.23;101579.72;5083049;28;20101;-63
2022/11/05 12:13:20;;;;;;;1.67;1.02;;;;;;;19.94;47.57;101575.91;5102963;28;20524;-63
2022/11/05 12:15:52;;;;;;;1.13;0.95;;;;;;;20.03;47.15;101579.38;5102598;28;20038;-63
2022/11/05 12:18:36;;;;;;;1.30;1.20;;;;;;;19.98;47.30;101568.47;5100977;28;20036;-63
2022/11/05 12:21:25;;;;;;;1.50;1.20;;;;;;;20.01;47.28;101568.13;5094454;28;20040;-64
2022/11/05 12:23:50;;;;;;;2.15;0.93;;;;;;;20.06;47.08;101560.53;5038645;28;20052;-62